Time;durP1;ratioP1;P1;durP2;ratioP2;P2;SDS_P1;SDS_P2;PMS_P1;PMS_P2;Temp;Humidity;BMP_temperature;BMP_pressure;BME280_temperature;BME280_humidity;BME280_pressure;Samples;Min_cycle;Max_cycle;Signal;HPM_P1;HPM_P2
2022/04/15 00:00:00;;;;;;;5.55;3.08;;;;;;;7.74;57.58;95464.00;5089658;28;20047;-44
2022/04/15 00:02:37;;;;;;;3.50;2.58;;;;;;;7.78;56.99;95470.38;5089893;28;20051;-43
2022/04/15 00:05:29;;;;;;;5.05;3.00;;;;;;;7.77;56.69;95463.59;5089855;28;20485;-43
2022/04/15 00:07:51;;;;;;;6.97;3.40;;;;;;;7.73;57.52;95462.41;5089244;28;20420;-44
2022/04/15 00:10:18;;;;;;;8.40;2.97;;;;;;;7.73;57.46;95467.56;5090730;28;20455;-44
2022/04/15 00:12:45;;;;;;;4.00;3.10;;;;;;;7.72;57.14;95465.97;5090475;28;20058;-42
2022/04/15 00:15:11;;;;;;;12.85;3.00;;;;;;;7.71;57.07;95464.38;5089971;28;20036;-43
2022/04/15 00:17:38;;;;;;;7.28;3.38;;;;;;;7.70;57.24;95460.19;5089476;28;20043;-44
2022/04/15 00:20:06;;;;;;;5.97;3.30;;;;;;;7.71;57.25;95454.00;5089261;28;20052;-44
2022/04/15 00:22:32;;;;;;;4.00;2.50;;;;;;;7.68;57.17;95454.41;5088834;28;20075;-45
2022/04/15 00:24:59;;;;;;;4.03;2.60;;;;;;;7.64;57.86;95463.56;5086830;28;20113;-43
2022/04/15 00:27:27;;;;;;;5.13;2.67;;;;;;;7.65;57.31;95459.97;5088362;28;20044;-45
2022/04/15 00:29:54;;;;;;;7.85;3.42;;;;;;;7.65;57.58;95459.97;5089389;28;20051;-46
2022/04/15 00:32:20;;;;;;;3.90;2.70;;;;;;;7.60;57.87;95468.34;5089270;28;20044;-45
2022/04/15 00:34:47;;;;;;;5.53;3.15;;;;;;;7.52;58.00;95460.75;5089250;28;20043;-44
2022/04/15 00:37:14;;;;;;;6.40;2.58;;;;;;;7.51;57.64;95453.97;5088588;28;20058;-43
2022/04/15 00:39:45;;;;;;;5.05;2.63;;;;;;;7.39;58.16;95456.34;5088831;28;20511;-45
2022/04/15 00:42:12;;;;;;;4.60;2.92;;;;;;;7.44;58.13;95464.31;5088369;28;20040;-43
2022/04/15 00:44:40;;;;;;;4.20;2.55;;;;;;;7.38;58.30;95459.94;5089467;28;20077;-44
2022/04/15 00:47:17;;;;;;;4.78;3.25;;;;;;;7.39;58.42;95458.91;5089197;28;20074;-44
2022/04/15 00:49:43;;;;;;;5.40;2.60;;;;;;;7.25;58.40;95446.91;5088435;28;20051;-44
2022/04/15 00:52:13;;;;;;;11.77;3.25;;;;;;;7.29;58.55;95461.06;5088100;28;20043;-43
2022/04/15 00:54:42;;;;;;;4.93;2.90;;;;;;;7.29;58.42;95471.44;5089720;28;20101;-43
2022/04/15 00:57:11;;;;;;;5.28;2.72;;;;;;;7.24;58.72;95469.44;5089518;28;20060;-44
2022/04/15 00:59:39;;;;;;;6.40;2.97;;;;;;;7.22;58.20;95460.25;5089166;28;20069;-43
2022/04/15 01:02:09;;;;;;;7.00;2.78;;;;;;;7.23;58.00;95461.88;5089510;28;20067;-45
2022/04/15 01:04:40;;;;;;;6.90;3.08;;;;;;;7.07;58.82;95460.41;5088958;28;20040;-45
2022/04/15 01:07:10;;;;;;;7.38;3.50;;;;;;;6.97;60.09;95472.91;5088175;28;20044;-43
2022/04/15 01:09:42;;;;;;;12.82;3.25;;;;;;;6.94;60.60;95479.28;5087166;28;20044;-44
2022/04/15 01:12:11;;;;;;;6.07;3.72;;;;;;;6.95;60.74;95475.72;5068671;28;20052;-44
2022/04/15 01:14:38;;;;;;;15.13;4.32;;;;;;;6.90;61.06;95467.72;5088283;28;20040;-45
2022/04/15 01:17:05;;;;;;;9.30;5.38;;;;;;;6.83;62.58;95478.03;5089123;28;20063;-43
2022/04/15 01:19:32;;;;;;;11.10;6.50;;;;;;;6.62;63.94;95481.47;5088750;28;21708;-42
2022/04/15 01:22:08;;;;;;;10.55;6.15;;;;;;;6.37;65.07;95472.56;5088929;28;20048;-43
2022/04/15 01:24:38;;;;;;;14.25;6.63;;;;;;;6.44;65.26;95476.00;5088081;28;20215;-44
2022/04/15 01:27:07;;;;;;;10.98;6.65;;;;;;;6.35;66.19;95475.34;5088876;28;20398;-44
2022/04/15 01:29:40;;;;;;;11.40;7.50;;;;;;;6.34;66.41;95478.09;5088785;28;20044;-45
2022/04/15 01:32:08;;;;;;;11.32;6.82;;;;;;;6.28;66.89;95480.47;5089563;28;20040;-46
2022/04/15 01:34:35;;;;;;;12.82;7.50;;;;;;;6.24;67.19;95479.22;5089118;28;20040;-43
2022/04/15 01:37:03;;;;;;;15.63;7.80;;;;;;;6.22;67.93;95476.03;5089461;28;21407;-44
2022/04/15 01:39:34;;;;;;;13.13;7.68;;;;;;;6.20;68.25;95475.44;5088293;28;20437;-44
2022/04/15 01:42:02;;;;;;;20.67;8.10;;;;;;;6.18;68.64;95476.63;5087815;28;20043;-43
2022/04/15 01:44:29;;;;;;;18.38;9.10;;;;;;;6.05;68.90;95472.13;5087952;28;20128;-46
2022/04/15 01:46:55;;;;;;;17.42;8.43;;;;;;;5.91;69.40;95469.41;5088004;28;20061;-44
2022/04/15 01:49:22;;;;;;;16.35;8.90;;;;;;;5.80;70.18;95467.31;5087553;28;20093;-44
2022/04/15 01:51:49;;;;;;;14.38;8.52;;;;;;;5.67;71.08;95464.59;5088051;28;20602;-42
2022/04/15 01:54:16;;;;;;;15.05;9.63;;;;;;;5.51;71.69;95453.53;5087417;28;22009;-45
2022/04/15 01:56:42;;;;;;;16.08;8.20;;;;;;;5.36;72.75;95453.53;5086907;28;20044;-43
2022/04/15 01:59:09;;;;;;;14.50;8.00;;;;;;;5.37;72.98;95456.94;5087915;28;20044;-44
2022/04/15 02:01:36;;;;;;;17.42;8.63;;;;;;;5.29;73.29;95454.47;5087505;28;20052;-44
2022/04/15 02:04:03;;;;;;;12.93;7.18;;;;;;;5.25;72.22;95453.25;5090072;28;20515;-44
2022/04/15 02:06:31;;;;;;;24.17;8.43;;;;;;;5.23;71.84;95460.38;5091138;28;20040;-44
2022/04/15 02:08:57;;;;;;;18.20;7.70;;;;;;;5.13;72.13;95451.13;5093139;28;20509;-44
2022/04/15 02:11:24;;;;;;;14.13;7.97;;;;;;;5.05;71.99;95448.66;5092973;28;20055;-43
2022/04/15 02:13:51;;;;;;;11.93;6.90;;;;;;;5.00;72.22;95450.97;5092675;28;20048;-43
2022/04/15 02:16:18;;;;;;;12.95;6.72;;;;;;;4.92;72.49;95444.13;5092084;28;20070;-44
2022/04/15 02:18:45;;;;;;;12.40;5.75;;;;;;;4.87;72.48;95445.66;5092180;28;20046;-46
2022/04/15 02:21:12;;;;;;;10.57;5.55;;;;;;;4.83;71.82;95434.09;5091178;28;20052;-44
2022/04/15 02:23:39;;;;;;;14.88;6.47;;;;;;;4.79;72.61;95449.94;5090870;28;20398;-44
2022/04/15 02:26:05;;;;;;;12.48;6.07;;;;;;;4.75;73.71;95448.69;5089439;28;20520;-46
2022/04/15 02:28:32;;;;;;;13.98;6.82;;;;;;;4.75;73.92;95438.38;5091023;28;20044;-42
2022/04/15 02:30:59;;;;;;;16.27;6.78;;;;;;;4.68;73.96;95445.22;5090250;28;20048;-44
2022/04/15 02:33:26;;;;;;;9.32;5.95;;;;;;;4.67;74.25;95448.78;5092703;28;20048;-44
2022/04/15 02:35:53;;;;;;;9.77;5.75;;;;;;;4.55;74.29;95442.47;5090396;28;20102;-43
2022/04/15 02:38:19;;;;;;;16.75;6.88;;;;;;;4.47;75.51;95451.09;5090209;28;20056;-43
2022/04/15 02:40:46;;;;;;;17.80;6.45;;;;;;;4.37;75.71;95438.44;5091763;28;20044;-47
2022/04/15 02:43:14;;;;;;;12.25;7.05;;;;;;;4.32;76.03;95438.19;5091853;28;20436;-44
2022/04/15 02:45:41;;;;;;;13.07;7.05;;;;;;;4.18;76.60;95451.88;5091018;28;20040;-42
2022/04/15 02:48:08;;;;;;;11.70;6.60;;;;;;;4.07;77.18;95440.19;5091340;28;20044;-43
2022/04/15 02:50:35;;;;;;;13.40;6.80;;;;;;;3.92;77.69;95445.31;5092250;28;20044;-43
2022/04/15 02:53:02;;;;;;;15.10;7.15;;;;;;;3.89;77.81;95440.50;5091851;28;20524;-44
2022/04/15 02:55:29;;;;;;;12.43;6.53;;;;;;;3.92;77.76;95442.72;5092545;28;20760;-46
2022/04/15 02:57:56;;;;;;;16.35;6.35;;;;;;;3.84;78.40;95450.53;5091290;28;20437;-45
2022/04/15 03:00:23;;;;;;;10.15;6.35;;;;;;;3.74;78.76;95448.19;5090542;28;20044;-42
2022/04/15 03:02:49;;;;;;;15.68;7.43;;;;;;;3.78;79.34;95448.63;5090407;28;20044;-43
2022/04/15 03:05:16;;;;;;;10.07;6.25;;;;;;;3.78;79.54;95451.22;5069136;28;20864;-45
2022/04/15 03:07:43;;;;;;;12.05;6.35;;;;;;;3.81;80.66;95445.72;5090867;28;20067;-45
2022/04/15 03:10:10;;;;;;;15.63;7.00;;;;;;;3.78;81.33;95448.63;5070704;28;20043;-42
2022/04/15 03:12:38;;;;;;;17.20;6.85;;;;;;;3.80;81.73;95444.94;5087318;28;20043;-45
2022/04/15 03:15:06;;;;;;;16.15;7.75;;;;;;;3.76;81.61;95427.41;5089997;28;20611;-46
2022/04/15 03:17:36;;;;;;;17.42;6.88;;;;;;;3.82;81.04;95444.75;5091056;28;20052;-43
2022/04/15 03:20:07;;;;;;;16.10;6.78;;;;;;;3.74;80.59;95444.81;5092154;28;20047;-46
2022/04/15 03:22:38;;;;;;;18.15;7.30;;;;;;;3.68;80.27;95450.66;5088787;28;21029;-43
2022/04/15 03:25:06;;;;;;;12.70;6.15;;;;;;;3.69;80.13;95447.09;5088978;28;20060;-44
2022/04/15 03:27:34;;;;;;;15.13;8.00;;;;;;;3.58;80.95;95446.56;5088071;28;20056;-48
2022/04/15 03:30:01;;;;;;;17.20;7.55;;;;;;;3.60;80.99;95447.19;5090501;28;20052;-44
2022/04/15 03:32:29;;;;;;;15.77;8.13;;;;;;;3.49;80.71;95452.72;5091003;28;20044;-44
2022/04/15 03:34:56;;;;;;;14.45;6.85;;;;;;;3.34;81.08;95454.44;5092136;28;20047;-46
2022/04/15 03:37:24;;;;;;;11.60;6.50;;;;;;;3.29;80.66;95442.06;5090829;28;20077;-46
2022/04/15 03:39:55;;;;;;;10.73;6.95;;;;;;;3.25;81.04;95467.34;5090076;28;20032;-46
2022/04/15 03:42:21;;;;;;;11.52;5.93;;;;;;;3.17;81.49;95459.69;5090141;28;20048;-44
2022/04/15 03:44:49;;;;;;;14.48;6.28;;;;;;;3.20;82.00;95469.59;5088728;28;20456;-44
2022/04/15 03:47:16;;;;;;;11.25;6.00;;;;;;;3.25;82.19;95462.19;5089467;28;20105;-42
2022/04/15 03:49:45;;;;;;;9.68;6.13;;;;;;;3.21;82.59;95460.94;5089569;28;20040;-42
2022/04/15 03:52:12;;;;;;;10.88;5.57;;;;;;;3.18;82.65;95466.41;5088176;28;20472;-44
2022/04/15 03:54:39;;;;;;;14.85;6.93;;;;;;;3.13;82.62;95463.53;5087422;28;20056;-42
2022/04/15 03:57:06;;;;;;;9.02;5.63;;;;;;;3.05;83.61;95463.59;5088526;28;20048;-43
2022/04/15 03:59:33;;;;;;;11.23;5.68;;;;;;;3.01;83.91;95465.69;5085166;28;20097;-43
2022/04/15 04:01:59;;;;;;;13.13;5.95;;;;;;;3.03;84.04;95468.91;5087842;28;20104;-44
2022/04/15 04:04:26;;;;;;;31.25;7.80;;;;;;;3.03;84.12;95468.09;5091965;28;20058;-45
2022/04/15 04:06:53;;;;;;;14.77;5.97;;;;;;;3.01;83.67;95475.19;5089372;28;20039;-45
2022/04/15 04:09:19;;;;;;;11.32;5.40;;;;;;;2.97;83.67;95468.75;5089994;28;20474;-45
2022/04/15 04:11:47;;;;;;;11.50;5.55;;;;;;;3.00;84.25;95468.44;5089041;28;20089;-44
2022/04/15 04:14:14;;;;;;;16.20;6.03;;;;;;;3.02;84.48;95476.78;5091581;28;20032;-44
2022/04/15 04:16:41;;;;;;;20.75;4.95;;;;;;;3.04;84.62;95474.84;5089261;28;20046;-47
2022/04/15 04:19:08;;;;;;;13.45;6.45;;;;;;;3.10;85.09;95484.47;5087933;28;20085;-43
2022/04/15 04:21:36;;;;;;;39.45;18.17;;;;;;;3.15;84.98;95487.34;5089527;28;20059;-46
2022/04/15 04:24:03;;;;;;;31.35;13.80;;;;;;;3.27;85.37;95489.56;5087443;28;20051;-47
2022/04/15 04:26:30;;;;;;;9.95;7.28;;;;;;;3.32;85.71;95492.44;5084193;28;20066;-43
2022/04/15 04:28:57;;;;;;;17.95;6.90;;;;;;;3.40;85.71;95489.78;5087122;28;20054;-44
2022/04/15 04:31:24;;;;;;;16.75;6.53;;;;;;;3.55;85.19;95488.09;5086745;28;20051;-46
2022/04/15 04:33:51;;;;;;;11.20;6.60;;;;;;;3.71;82.94;95483.78;5086439;28;20142;-43
2022/04/15 04:36:17;;;;;;;19.27;7.35;;;;;;;3.77;83.19;95490.84;5085450;28;20530;-44
2022/04/15 04:38:44;;;;;;;17.58;7.32;;;;;;;3.81;82.76;95492.09;5086880;28;20518;-44
2022/04/15 04:41:11;;;;;;;19.65;8.27;;;;;;;3.83;83.02;95490.97;5086484;28;20048;-42
2022/04/15 04:43:38;;;;;;;22.63;13.52;;;;;;;3.93;82.56;95483.00;5084875;28;20128;-43
2022/04/15 04:46:05;;;;;;;19.13;8.02;;;;;;;4.04;82.60;95496.47;5088263;28;20063;-44
2022/04/15 04:48:32;;;;;;;11.98;6.60;;;;;;;4.18;82.67;95482.81;5086066;28;20100;-45
2022/04/15 04:50:59;;;;;;;24.75;11.23;;;;;;;4.33;82.14;95486.19;5086227;28;20501;-44
2022/04/15 04:53:26;;;;;;;14.52;9.55;;;;;;;4.53;81.42;95490.84;5087110;28;20100;-45
2022/04/15 04:55:52;;;;;;;20.90;9.75;;;;;;;4.72;79.83;95494.69;5086957;28;20036;-45
2022/04/15 04:58:19;;;;;;;24.08;8.77;;;;;;;4.90;78.58;95496.94;5088031;28;20044;-46
2022/04/15 05:00:46;;;;;;;23.30;9.27;;;;;;;5.07;77.89;95490.56;5088038;28;20463;-43
2022/04/15 05:03:12;;;;;;;21.30;10.57;;;;;;;5.17;77.19;95493.69;5086997;28;20063;-45
2022/04/15 05:05:39;;;;;;;18.02;7.70;;;;;;;5.32;76.75;95500.59;5086361;28;20032;-42
2022/04/15 05:08:06;;;;;;;12.10;6.72;;;;;;;5.53;76.28;95498.06;5088066;28;20059;-46
2022/04/15 05:10:33;;;;;;;20.17;7.78;;;;;;;5.62;75.40;95495.34;5087411;28;20078;-42
2022/04/15 05:13:00;;;;;;;10.88;6.22;;;;;;;5.77;74.89;95490.94;5086585;28;20052;-42
2022/04/15 05:15:27;;;;;;;12.80;5.80;;;;;;;5.81;73.19;95484.41;5087653;28;20421;-43
2022/04/15 05:17:54;;;;;;;11.35;5.90;;;;;;;5.98;72.70;95489.34;5086893;28;20421;-43
2022/04/15 05:20:21;;;;;;;11.32;6.75;;;;;;;6.04;73.03;95493.81;5086348;28;20520;-44
2022/04/15 05:22:47;;;;;;;18.13;8.32;;;;;;;6.18;73.36;95503.28;5087123;28;20036;-44
2022/04/15 05:25:14;;;;;;;18.58;9.30;;;;;;;6.31;73.29;95500.78;5086417;28;20556;-45
2022/04/15 05:27:41;;;;;;;17.92;9.38;;;;;;;6.43;74.63;95502.88;5085314;28;20570;-44
2022/04/15 05:30:08;;;;;;;17.45;8.15;;;;;;;6.50;73.08;95498.56;5086378;28;20039;-45
2022/04/15 05:32:35;;;;;;;14.65;8.68;;;;;;;6.47;72.14;95504.09;5086234;28;20059;-43
2022/04/15 05:35:02;;;;;;;18.48;7.93;;;;;;;6.40;72.16;95477.38;5085914;28;20052;-42
2022/04/15 05:37:28;;;;;;;18.77;8.10;;;;;;;6.61;71.20;95489.44;5089255;28;20056;-44
2022/04/15 05:39:55;;;;;;;13.93;6.88;;;;;;;6.86;71.80;95502.72;5092590;28;20047;-42
2022/04/15 05:42:22;;;;;;;13.07;7.35;;;;;;;7.04;69.45;95500.44;5088644;28;20421;-43
2022/04/15 05:44:49;;;;;;;13.50;7.15;;;;;;;7.12;68.44;95477.97;5090587;28;20460;-45
2022/04/15 05:47:15;;;;;;;13.63;7.20;;;;;;;7.33;68.83;95488.22;5090607;28;20052;-48
2022/04/15 05:49:42;;;;;;;12.40;6.63;;;;;;;7.51;67.49;95489.44;5092073;28;21547;-43
2022/04/15 05:52:09;;;;;;;16.17;7.35;;;;;;;7.69;66.51;95492.31;5091921;28;20050;-42
2022/04/15 05:54:35;;;;;;;12.27;6.70;;;;;;;7.91;66.27;95486.97;5091489;28;20105;-44
2022/04/15 05:57:02;;;;;;;12.82;7.30;;;;;;;8.06;66.67;95482.38;5090655;28;20043;-44
2022/04/15 05:59:29;;;;;;;17.85;8.20;;;;;;;8.23;66.71;95490.59;5091182;28;20580;-49
2022/04/15 06:01:56;;;;;;;13.85;8.18;;;;;;;8.38;66.57;95495.56;5090646;28;20073;-45
2022/04/15 06:04:23;;;;;;;18.33;7.45;;;;;;;8.47;65.95;95486.59;5091255;28;20071;-43
2022/04/15 06:06:49;;;;;;;18.10;7.93;;;;;;;8.56;65.97;95490.56;5091421;28;20539;-45
2022/04/15 06:09:16;;;;;;;14.57;7.13;;;;;;;8.65;63.95;95490.38;5091506;28;20047;-46
2022/04/15 06:11:43;;;;;;;14.45;6.45;;;;;;;8.80;62.14;95490.94;5091469;28;20088;-44
2022/04/15 06:14:10;;;;;;;12.23;6.97;;;;;;;8.89;62.52;95481.13;5091044;28;20042;-46
2022/04/15 06:16:39;;;;;;;13.65;6.65;;;;;;;9.03;62.57;95485.28;5091783;28;20040;-45
2022/04/15 06:19:05;;;;;;;13.13;6.22;;;;;;;9.16;62.30;95487.03;5091935;28;20054;-45
2022/04/15 06:21:51;;;;;;;;;;;;;;;9.25;60.08;95485.00;5090125;28;20104;-45
2022/04/15 06:24:17;;;;;;;12.60;7.45;;;;;;;9.36;60.25;95481.75;5090316;28;19924;-43
2022/04/15 06:26:44;;;;;;;13.32;6.65;;;;;;;9.57;59.80;95483.28;5089580;28;20582;-44
2022/04/15 06:29:14;;;;;;;11.77;6.50;;;;;;;9.67;59.80;95483.63;5089909;28;20040;-47
2022/04/15 06:31:41;;;;;;;18.05;6.95;;;;;;;9.74;59.13;95489.59;5090506;28;20055;-42
2022/04/15 06:34:08;;;;;;;26.50;9.73;;;;;;;9.85;58.49;95484.69;5090948;28;20413;-44
2022/04/15 06:36:35;;;;;;;11.25;6.15;;;;;;;9.94;57.42;95483.47;5089617;28;20039;-45
2022/04/15 06:39:01;;;;;;;19.48;5.72;;;;;;;10.03;56.03;95487.41;5089912;28;20812;-43
2022/04/15 06:41:28;;;;;;;13.77;5.90;;;;;;;10.29;55.24;95485.59;5089926;28;20047;-43
2022/04/15 06:43:55;;;;;;;15.55;5.55;;;;;;;10.46;54.58;95491.91;5089942;28;20040;-42
2022/04/15 06:46:22;;;;;;;10.02;6.28;;;;;;;10.44;53.22;95493.94;5090298;28;20040;-44
2022/04/15 06:48:49;;;;;;;12.95;6.75;;;;;;;10.61;53.02;95482.97;5089061;28;20058;-44
2022/04/15 06:51:16;;;;;;;16.30;5.55;;;;;;;10.64;52.45;95490.34;5090524;28;20048;-49
2022/04/15 06:53:42;;;;;;;11.43;5.45;;;;;;;10.87;52.18;95493.13;5090399;28;20467;-45
2022/04/15 06:56:10;;;;;;;9.70;4.55;;;;;;;10.90;51.31;95492.69;5090371;28;20036;-48
2022/04/15 06:58:37;;;;;;;9.15;5.07;;;;;;;11.08;50.83;95498.94;5089648;28;20055;-42
2022/04/15 07:01:04;;;;;;;13.95;5.45;;;;;;;11.19;50.87;95485.16;5090447;28;20044;-50
2022/04/15 07:03:31;;;;;;;10.50;5.38;;;;;;;11.38;49.95;95485.13;5090408;28;20127;-44
2022/04/15 07:05:58;;;;;;;9.10;4.90;;;;;;;11.59;50.01;95489.88;5091177;28;20051;-44
2022/04/15 07:08:24;;;;;;;10.20;5.70;;;;;;;11.80;50.02;95485.22;5090501;28;20043;-45
2022/04/15 07:10:51;;;;;;;9.23;5.43;;;;;;;11.93;49.71;95479.81;5090605;28;20048;-49
2022/04/15 07:13:18;;;;;;;9.85;5.60;;;;;;;12.11;48.74;95470.34;5091697;28;20098;-45
2022/04/15 07:15:45;;;;;;;10.77;5.15;;;;;;;12.36;48.73;95473.53;5090629;28;20075;-47
2022/04/15 07:18:12;;;;;;;11.45;5.13;;;;;;;12.53;47.18;95467.66;5090730;28;20136;-43
2022/04/15 07:20:39;;;;;;;9.50;4.53;;;;;;;12.63;47.00;95467.88;5090056;28;20048;-44
2022/04/15 07:23:06;;;;;;;7.22;4.80;;;;;;;12.81;46.68;95470.38;5090117;28;20154;-47
2022/04/15 07:25:34;;;;;;;9.98;5.63;;;;;;;12.91;46.35;95459.34;5090596;28;20122;-43
2022/04/15 07:28:02;;;;;;;18.08;5.70;;;;;;;13.20;45.53;95468.03;5090253;28;20523;-46
2022/04/15 07:30:29;;;;;;;14.15;5.60;;;;;;;13.37;44.37;95472.56;5091025;28;20501;-47
2022/04/15 07:32:56;;;;;;;10.02;5.03;;;;;;;13.51;45.32;95457.41;5091271;28;20047;-45
2022/04/15 07:35:23;;;;;;;12.45;5.13;;;;;;;13.42;45.45;95458.81;5086460;28;20062;-43
2022/04/15 07:37:50;;;;;;;10.45;4.90;;;;;;;13.44;44.87;95477.66;5081299;28;20152;-44
2022/04/15 07:40:17;;;;;;;8.23;4.55;;;;;;;13.55;44.91;95464.53;5088221;28;20040;-46
2022/04/15 07:42:44;;;;;;;9.95;5.03;;;;;;;13.84;43.49;95461.91;5089917;28;20492;-48
2022/04/15 07:45:11;;;;;;;6.65;4.80;;;;;;;14.01;42.73;95468.97;5085474;28;20051;-42
2022/04/15 07:47:38;;;;;;;13.98;4.93;;;;;;;14.32;42.98;95463.22;5087904;28;20078;-43
2022/04/15 07:50:21;;;;;;;7.10;4.38;;;;;;;14.57;42.61;95463.81;5090220;28;20044;-43
2022/04/15 07:52:49;;;;;;;16.20;4.82;;;;;;;14.77;42.34;95458.13;5088492;28;20067;-43
2022/04/15 07:55:16;;;;;;;8.38;4.43;;;;;;;15.05;40.86;95457.97;5089273;28;20051;-43
2022/04/15 07:57:43;;;;;;;10.98;4.78;;;;;;;15.27;40.85;95452.72;5088061;28;20052;-42
2022/04/15 08:00:11;;;;;;;7.60;4.45;;;;;;;15.33;40.30;95455.41;5086149;28;20044;-45
2022/04/15 08:02:37;;;;;;;9.25;5.47;;;;;;;15.44;40.35;95457.91;5088801;28;20121;-44
2022/04/15 08:05:04;;;;;;;10.52;5.28;;;;;;;15.42;40.25;95438.97;5087489;28;20064;-43
2022/04/15 08:07:31;;;;;;;7.32;4.03;;;;;;;15.40;40.54;95442.91;5089105;28;20064;-43
2022/04/15 08:09:58;;;;;;;6.88;3.53;;;;;;;15.50;38.62;95440.38;5088084;28;20089;-46
2022/04/15 08:12:25;;;;;;;4.60;3.97;;;;;;;15.64;38.67;95446.03;5091720;28;20112;-44
2022/04/15 08:14:58;;;;;;;6.45;3.78;;;;;;;15.72;38.58;95448.22;5088232;28;20139;-47
2022/04/15 08:17:25;;;;;;;6.93;3.17;;;;;;;15.98;37.98;95441.38;5088585;28;20044;-44
2022/04/15 08:19:52;;;;;;;5.82;3.25;;;;;;;16.00;36.62;95446.41;5087318;28;20052;-45
2022/04/15 08:22:19;;;;;;;4.10;2.75;;;;;;;16.09;36.57;95438.84;5090454;28;20099;-45
2022/04/15 08:24:45;;;;;;;33.70;4.25;;;;;;;16.43;36.44;95427.00;5088031;28;20044;-45
2022/04/15 08:27:12;;;;;;;8.88;2.80;;;;;;;16.89;35.99;95433.59;5087588;28;20707;-48
2022/04/15 08:29:39;;;;;;;29.92;5.05;;;;;;;17.21;35.21;95433.50;5088954;28;20111;-47
2022/04/15 08:32:09;;;;;;;6.90;2.70;;;;;;;17.23;33.69;95423.50;5089655;28;20036;-44
2022/04/15 08:34:37;;;;;;;6.40;2.50;;;;;;;17.43;34.22;95432.50;5089028;28;20044;-45
2022/04/15 08:37:04;;;;;;;4.32;2.35;;;;;;;17.38;32.72;95431.44;5089337;28;20481;-45
2022/04/15 08:39:31;;;;;;;7.15;2.42;;;;;;;17.19;33.37;95432.97;5089353;28;20470;-45
2022/04/15 08:41:58;;;;;;;4.57;3.17;;;;;;;17.21;34.05;95420.31;5087887;28;20132;-43
2022/04/15 08:44:25;;;;;;;3.15;2.30;;;;;;;17.21;32.88;95425.59;5088269;28;20501;-47
2022/04/15 08:46:52;;;;;;;2.45;1.90;;;;;;;16.96;32.26;95428.91;5089342;28;20393;-47
2022/04/15 08:49:19;;;;;;;2.63;2.10;;;;;;;17.23;32.86;95417.44;5091409;28;20052;-48
2022/04/15 08:51:49;;;;;;;3.78;2.30;;;;;;;17.45;31.97;95404.06;5090680;28;20424;-45
2022/04/15 08:54:18;;;;;;;2.60;1.88;;;;;;;17.49;32.24;95405.94;5089630;28;20055;-43
2022/04/15 08:56:45;;;;;;;5.78;2.55;;;;;;;17.52;32.28;95404.63;5090081;28;20080;-47
2022/04/15 08:59:12;;;;;;;8.40;2.47;;;;;;;17.47;32.37;95407.25;5090142;28;20048;-44
2022/04/15 09:01:39;;;;;;;4.47;2.92;;;;;;;17.37;32.14;95403.53;5089342;28;20036;-45
2022/04/15 09:04:06;;;;;;;6.72;2.50;;;;;;;17.65;31.99;95398.88;5089788;28;20134;-47
2022/04/15 09:06:33;;;;;;;3.88;2.30;;;;;;;17.92;31.62;95392.59;5091498;28;20629;-46
2022/04/15 09:09:08;;;;;;;10.05;2.10;;;;;;;18.23;32.00;95392.59;5088329;28;20044;-45
2022/04/15 09:11:38;;;;;;;30.45;3.25;;;;;;;18.63;31.04;95386.44;5089076;28;20051;-45
2022/04/15 09:14:13;;;;;;;9.65;2.67;;;;;;;18.85;30.48;95394.06;5087322;28;20044;-47
2022/04/15 09:16:45;;;;;;;3.97;1.92;;;;;;;18.98;28.85;95381.34;5089296;28;20044;-48
2022/04/15 09:19:13;;;;;;;5.68;2.40;;;;;;;18.96;30.67;95351.78;5089918;28;20071;-45
2022/04/15 09:21:42;;;;;;;3.10;2.10;;;;;;;19.56;29.29;95378.94;5090700;28;20040;-44
2022/04/15 09:24:11;;;;;;;12.73;2.65;;;;;;;19.81;30.24;95350.78;5089125;28;20056;-46
2022/04/15 09:26:38;;;;;;;5.78;2.47;;;;;;;20.01;28.06;95358.53;5089059;28;20059;-44
2022/04/15 09:29:05;;;;;;;2.97;1.98;;;;;;;20.18;27.08;95354.69;5088171;28;20047;-43
2022/04/15 09:31:31;;;;;;;4.18;2.47;;;;;;;20.32;27.49;95347.69;5090013;28;20113;-44
2022/04/15 09:34:00;;;;;;;10.88;2.17;;;;;;;20.33;27.01;95351.09;5088824;28;20051;-45
2022/04/15 09:36:33;;;;;;;2.72;1.65;;;;;;;20.22;26.09;95339.84;5089724;28;20043;-48
2022/04/15 09:39:11;;;;;;;4.50;2.10;;;;;;;20.42;27.48;95344.94;5089613;28;20469;-43
2022/04/15 09:41:39;;;;;;;6.20;1.73;;;;;;;20.58;26.91;95337.63;5086716;28;20555;-45
2022/04/15 09:44:10;;;;;;;4.20;2.20;;;;;;;20.76;26.00;95338.78;5089971;28;20051;-45
2022/04/15 09:46:37;;;;;;;3.50;2.15;;;;;;;20.93;26.77;95332.22;5088941;28;20044;-44
2022/04/15 09:49:07;;;;;;;5.28;2.20;;;;;;;20.93;24.29;95316.34;5089389;28;20444;-45
2022/04/15 09:51:44;;;;;;;3.17;2.15;;;;;;;21.05;26.90;95329.97;5088984;28;20109;-45
2022/04/15 09:54:22;;;;;;;6.72;1.88;;;;;;;21.43;25.13;95324.66;5089579;28;20123;-45
2022/04/15 09:56:51;;;;;;;3.65;2.22;;;;;;;21.82;24.15;95326.22;5086611;28;20032;-44
2022/04/15 09:59:26;;;;;;;3.38;1.63;;;;;;;22.15;24.25;95318.25;5087562;28;20044;-46
2022/04/15 10:01:58;;;;;;;3.15;1.90;;;;;;;22.22;23.31;95318.66;5087574;28;20101;-46
2022/04/15 10:04:26;;;;;;;1.88;1.50;;;;;;;22.28;22.87;95306.13;5088009;28;20039;-46
2022/04/15 10:06:54;;;;;;;8.98;2.42;;;;;;;22.16;22.51;95303.91;5087745;28;20044;-49
2022/04/15 10:09:21;;;;;;;3.42;2.40;;;;;;;22.36;22.91;95296.69;5087447;28;20036;-47
2022/04/15 10:11:49;;;;;;;15.07;2.85;;;;;;;22.55;22.41;95299.25;5085790;28;20050;-48
2022/04/15 10:14:18;;;;;;;5.10;2.10;;;;;;;22.35;22.02;95300.44;5085507;28;20048;-45
2022/04/15 10:16:45;;;;;;;6.65;2.25;;;;;;;22.13;21.74;95285.94;5082911;28;20080;-46
2022/04/15 10:19:12;;;;;;;3.58;2.17;;;;;;;22.40;23.53;95292.34;5084157;28;20047;-46
2022/04/15 10:21:44;;;;;;;3.42;1.85;;;;;;;22.65;21.92;95283.91;5086004;28;20610;-44
2022/04/15 10:24:12;;;;;;;4.38;2.35;;;;;;;22.82;22.29;95287.81;5087864;28;20058;-44
2022/04/15 10:26:44;;;;;;;4.25;2.10;;;;;;;23.15;21.67;95285.03;5085020;28;20500;-44
2022/04/15 10:29:12;;;;;;;5.57;3.10;;;;;;;22.93;21.18;95289.19;5091336;28;20043;-45
2022/04/15 10:31:44;;;;;;;5.47;2.38;;;;;;;23.03;22.01;95277.53;5069577;28;20055;-45
2022/04/15 10:34:19;;;;;;;5.13;2.60;;;;;;;23.41;20.12;95263.97;5070189;28;20054;-45
2022/04/15 10:36:49;;;;;;;3.45;2.20;;;;;;;23.58;20.20;95261.44;5089180;28;20031;-46
2022/04/15 10:39:24;;;;;;;4.90;3.05;;;;;;;23.83;19.79;95260.03;5088777;28;20507;-45
2022/04/15 10:42:05;;;;;;;3.92;2.60;;;;;;;24.12;19.31;95253.44;5086883;28;20039;-47
2022/04/15 10:44:40;;;;;;;2.80;2.08;;;;;;;24.49;17.91;95256.72;5081946;28;20080;-47
2022/04/15 10:47:30;;;;;;;5.60;2.22;;;;;;;23.97;18.20;95256.53;5086856;28;20059;-46
2022/04/15 10:50:06;;;;;;;8.65;2.97;;;;;;;23.81;18.76;95248.94;5088723;28;20063;-45
2022/04/15 10:52:34;;;;;;;4.70;2.53;;;;;;;23.60;19.88;95247.84;5091320;28;20488;-45
2022/04/15 10:55:11;;;;;;;6.68;2.92;;;;;;;23.61;20.07;95244.09;5089338;28;20450;-49
2022/04/15 10:57:46;;;;;;;6.78;3.00;;;;;;;23.91;20.25;95241.78;5088979;28;20043;-47
2022/04/15 11:03:21;;;;;;;4.07;2.40;;;;;;;23.45;20.26;95236.47;5089565;28;20088;-46
2022/04/15 11:05:49;;;;;;;3.67;2.40;;;;;;;23.19;20.64;95233.66;5089186;28;20584;-43
2022/04/15 11:08:20;;;;;;;7.07;2.70;;;;;;;23.11;21.15;95228.28;5088291;28;20500;-47
2022/04/15 11:10:49;;;;;;;5.45;2.95;;;;;;;23.13;19.10;95223.44;5090886;28;20417;-47
2022/04/15 11:13:28;;;;;;;11.13;2.67;;;;;;;23.62;16.46;95224.38;5088332;28;20040;-45
2022/04/15 11:16:06;;;;;;;5.38;2.47;;;;;;;23.93;18.99;95223.63;5087053;28;21096;-44
2022/04/15 11:18:48;;;;;;;8.13;2.45;;;;;;;24.16;16.19;95233.13;5087668;28;20047;-44
2022/04/15 11:21:24;;;;;;;5.47;3.00;;;;;;;24.09;16.31;95224.00;5089631;28;20060;-46
2022/04/15 11:23:56;;;;;;;4.85;2.65;;;;;;;24.16;16.11;95227.03;5091462;28;20055;-48
2022/04/15 11:26:27;;;;;;;5.93;3.25;;;;;;;24.03;15.91;95218.06;5090723;28;20039;-46
2022/04/15 11:28:57;;;;;;;4.18;2.67;;;;;;;24.09;16.28;95216.81;5087314;28;20051;-46
2022/04/15 11:31:28;;;;;;;4.80;2.72;;;;;;;24.47;16.15;95216.31;5088933;28;20048;-46
2022/04/15 11:34:02;;;;;;;4.03;3.03;;;;;;;24.60;16.75;95209.34;5090890;28;20055;-49
2022/04/15 11:36:32;;;;;;;4.63;2.08;;;;;;;24.65;16.93;95211.03;5089104;28;20128;-48
2022/04/15 11:39:01;;;;;;;4.82;2.50;;;;;;;24.79;17.26;95206.38;5085851;28;20038;-49
2022/04/15 11:41:29;;;;;;;5.63;2.38;;;;;;;25.17;16.59;95205.75;5087401;28;20044;-47